Marree, Australia
Current Conditions -  °F | °C
As of 5:00 AM on Friday 24 Oct 2014 (Local Time) from YOLD Reporting Station
Clear Clear  
Wind Chill: 73°   Ceiling: Unl
Heat Index: 73°   Visibility: 6mi
Dew Point: 37°   Wind: 6mph
Humidity: 27%   Direction: 40°NE
Pressure: 29.91"   Gusts: NA
Location:  29.65°S, 138.07°E
Report Text: YOLD 231900Z AUTO 04005KT 9999 // NCD 23/03 Q1013
Loading
Personal Weather Stations






























Interactive Weather Map
Tropical Storm Tracking
New forecast layout! Learn more

10-Day Weather Forecast

Advertisements
Track Severe Weather on mobile